Delta Virtual Airport Information Service

Keflavik International Airport

ICAO: BIKF Country: Iceland
Latitude: 63.985 Longitude: -22.6055
Latest Arrival : DAC802 (EGCC-BIKF) Latest Departure : DAC802 (BIKF-KATL)


WX CaptureLIVE
Data provided by noaa.gov | Fetched at 16:10:43

METAR : BIKF 242030Z 16012KT 9999 FEW017 SCT031 07/05 Q0997

TAF : BIKF 241959Z 2421/2521 16015KT 9999 -SHRA SCT020 BKN035 TX09/2515Z TN04/2503Z TEMPO 2500/2521 SHRA BKN012CB


Runway Data for BIKF
Data provided by openaviationdata.com

Runway ID Mag Var Hdg Length Elevation Surface ILS Freq ILS Id ILS Slope
2 -19 19° 9999 ft 171 ft Asphalt 111.3 IKN 3
11 -19 109° 10051 ft 171 ft Asphalt 109.5 IKF 3
20 -19 199° 9999 ft 171 ft Asphalt 110.3 IKO 3
29 -19 289° 10051 ft 171 ft Asphalt 108.5 IKW 3

Keflavik International Airport, Iceland
Use only for reference purposes



Not for navigational purposes.